createdAt,value
2023-08-24T00:00:46.415Z,8.30
2023-08-24T00:01:46.404Z,8.60
2023-08-24T00:02:46.411Z,8.20
2023-08-24T00:03:46.452Z,8.40
2023-08-24T00:04:46.384Z,8.30
2023-08-24T00:05:46.370Z,7.30
2023-08-24T00:06:46.369Z,7.40
2023-08-24T00:07:46.361Z,6.90
2023-08-24T00:08:46.386Z,6.30
2023-08-24T00:09:46.343Z,6.30
2023-08-24T00:10:46.341Z,5.90
2023-08-24T00:11:46.334Z,5.80
2023-08-24T00:12:46.352Z,5.70
2023-08-24T00:13:46.343Z,5.90
2023-08-24T00:14:46.322Z,5.70
2023-08-24T00:15:46.349Z,5.80
2023-08-24T00:16:46.299Z,6.00
2023-08-24T00:17:46.386Z,6.10
2023-08-24T00:18:46.285Z,6.20
2023-08-24T00:19:46.278Z,6.10
2023-08-24T00:20:46.260Z,6.90
2023-08-24T00:21:46.252Z,9.60
2023-08-24T00:22:46.281Z,9.60
2023-08-24T00:23:46.240Z,9.60
2023-08-24T00:24:46.227Z,9.10
2023-08-24T00:25:46.221Z,10.10
2023-08-24T00:26:46.205Z,9.90
2023-08-24T00:27:46.237Z,9.10
2023-08-24T00:28:46.193Z,9.30
2023-08-24T00:29:46.188Z,8.50
2023-08-24T00:30:46.180Z,8.70
2023-08-24T00:31:46.236Z,8.80
2023-08-24T00:32:46.223Z,8.70
2023-08-24T00:33:46.167Z,8.60
2023-08-24T00:34:46.140Z,8.60
2023-08-24T00:35:46.166Z,8.20
2023-08-24T00:36:46.152Z,7.80
2023-08-24T00:37:46.124Z,8.50
2023-08-24T00:38:46.109Z,8.50
2023-08-24T00:39:46.117Z,8.90
2023-08-24T00:40:46.101Z,8.30
2023-08-24T00:41:46.121Z,8.30
2023-08-24T00:42:46.063Z,8.50
2023-08-24T00:43:47.072Z,7.60
2023-08-24T00:44:46.059Z,7.40
2023-08-24T00:45:46.134Z,7.20
2023-08-24T00:46:46.078Z,7.20
2023-08-24T00:47:46.077Z,7.20
2023-08-24T00:48:46.039Z,7.00
2023-08-24T00:49:46.033Z,6.80
2023-08-24T00:50:46.047Z,7.20
2023-08-24T00:51:46.005Z,7.10
2023-08-24T00:52:45.995Z,6.50
2023-08-24T00:53:45.996Z,6.70
2023-08-24T00:54:45.991Z,6.80
2023-08-24T00:55:46.010Z,6.60
2023-08-24T00:56:45.976Z,6.20
2023-08-24T00:57:45.978Z,11.60
2023-08-24T00:58:45.954Z,13.30
2023-08-24T00:59:45.975Z,12.80
2023-08-24T01:00:45.981Z,11.80
2023-08-24T01:01:45.926Z,11.70
2023-08-24T01:02:45.974Z,11.70
2023-08-24T01:03:45.921Z,9.40
2023-08-24T01:04:45.941Z,9.40
2023-08-24T01:05:45.906Z,10.20
2023-08-24T01:06:45.921Z,10.70
2023-08-24T01:07:45.887Z,11.00
2023-08-24T01:08:45.875Z,10.20
2023-08-24T01:09:45.879Z,10.20
2023-08-24T01:10:46.869Z,9.40
2023-08-24T01:11:45.839Z,9.00
2023-08-24T01:12:46.839Z,8.80
2023-08-24T01:13:45.865Z,9.20
2023-08-24T01:14:45.847Z,9.80
2023-08-24T01:15:45.814Z,9.20
2023-08-24T01:16:45.847Z,8.80
2023-08-24T01:17:45.886Z,9.40
2023-08-24T01:18:45.813Z,9.50
2023-08-24T01:19:45.829Z,9.30
2023-08-24T01:20:45.804Z,9.20
2023-08-24T01:21:45.774Z,9.20
2023-08-24T01:22:45.755Z,8.90
2023-08-24T01:23:46.799Z,8.80
2023-08-24T01:24:45.754Z,9.10
2023-08-24T01:25:45.737Z,8.90
2023-08-24T01:26:45.733Z,8.40
2023-08-24T01:27:45.752Z,7.60
2023-08-24T01:28:45.740Z,7.20
2023-08-24T01:29:45.705Z,6.90
2023-08-24T01:30:46.749Z,7.30
2023-08-24T01:31:45.705Z,7.60
2023-08-24T01:32:45.738Z,7.30
2023-08-24T01:33:45.690Z,7.60
2023-08-24T01:34:45.670Z,7.50
2023-08-24T01:35:45.661Z,7.40
2023-08-24T01:36:45.650Z,7.60
2023-08-24T01:37:45.681Z,7.60
2023-08-24T01:38:45.644Z,7.70
2023-08-24T01:39:45.638Z,7.50
2023-08-24T01:40:45.635Z,7.40
2023-08-24T01:41:45.653Z,7.60
2023-08-24T01:42:45.659Z,7.50
2023-08-24T01:43:45.605Z,7.40
2023-08-24T01:44:45.591Z,7.90
2023-08-24T01:45:45.586Z,7.80
2023-08-24T01:46:45.636Z,10.00
2023-08-24T01:47:45.620Z,10.60
2023-08-24T01:48:45.663Z,11.50
2023-08-24T01:49:45.568Z,11.80
2023-08-24T01:50:45.556Z,9.30
2023-08-24T01:51:45.572Z,8.50
2023-08-24T01:52:45.548Z,8.60
2023-08-24T01:53:45.532Z,8.70
2023-08-24T01:54:45.515Z,9.10
2023-08-24T01:55:45.547Z,9.00
2023-08-24T01:56:45.556Z,10.50
2023-08-24T01:57:45.516Z,11.70
2023-08-24T01:58:45.493Z,10.40
2023-08-24T01:59:45.505Z,10.10
2023-08-24T02:00:45.522Z,9.50
2023-08-24T02:01:45.522Z,8.80
2023-08-24T02:02:45.543Z,8.70
2023-08-24T02:03:45.556Z,9.40
2023-08-24T02:04:45.462Z,9.80
2023-08-24T02:05:45.468Z,9.40
2023-08-24T02:06:45.446Z,11.70
2023-08-24T02:07:45.497Z,11.30
2023-08-24T02:08:45.449Z,12.60
2023-08-24T02:09:45.407Z,14.50
2023-08-24T02:10:45.428Z,13.00
2023-08-24T02:11:45.392Z,11.20
2023-08-24T02:12:45.382Z,10.50
2023-08-24T02:13:45.383Z,10.60
2023-08-24T02:14:45.391Z,9.50
2023-08-24T02:15:45.389Z,9.00
2023-08-24T02:16:45.375Z,9.10
2023-08-24T02:17:45.369Z,19.00
2023-08-24T02:18:45.345Z,44.80
2023-08-24T02:19:45.366Z,40.70
2023-08-24T02:20:45.332Z,41.30
2023-08-24T02:21:45.324Z,64.80
2023-08-24T02:22:45.314Z,46.30
2023-08-24T02:23:45.308Z,44.70
2023-08-24T02:24:45.322Z,22.90
2023-08-24T02:25:45.286Z,19.30
2023-08-24T02:26:45.276Z,16.70
2023-08-24T02:27:45.269Z,15.30
2023-08-24T02:28:45.282Z,12.80
2023-08-24T02:29:46.285Z,10.90
2023-08-24T02:30:45.253Z,26.00
2023-08-24T02:31:45.312Z,13.90
2023-08-24T02:32:45.261Z,9.50
2023-08-24T02:33:45.252Z,9.20
2023-08-24T02:34:45.251Z,8.70
2023-08-24T02:35:45.215Z,8.50
2023-08-24T02:36:45.197Z,9.00
2023-08-24T02:37:45.194Z,9.40
2023-08-24T02:38:45.218Z,15.00
2023-08-24T02:39:45.177Z,13.30
2023-08-24T02:40:45.208Z,10.70
2023-08-24T02:41:45.163Z,13.50
2023-08-24T02:42:45.156Z,15.10
2023-08-24T02:43:47.500Z,54.30
2023-08-24T02:44:45.134Z,29.40
2023-08-24T02:45:45.150Z,22.70
2023-08-24T02:46:45.115Z,18.10
2023-08-24T02:47:45.178Z,18.00
2023-08-24T02:48:45.146Z,12.50
2023-08-24T02:49:45.085Z,10.00
2023-08-24T02:50:45.082Z,9.30
2023-08-24T02:51:45.072Z,9.00
2023-08-24T02:52:45.088Z,31.20
2023-08-24T02:53:45.054Z,15.20
2023-08-24T02:54:45.048Z,11.50
2023-08-24T02:55:45.025Z,9.70
2023-08-24T02:56:46.059Z,9.60
2023-08-24T02:57:45.049Z,13.40
2023-08-24T02:58:45.016Z,18.50
2023-08-24T02:59:45.006Z,40.10
2023-08-24T03:00:45.001Z,34.90
2023-08-24T03:01:45.065Z,24.70
2023-08-24T03:02:45.056Z,13.40
2023-08-24T03:03:45.022Z,10.50
2023-08-24T03:04:44.963Z,9.50
2023-08-24T03:05:44.966Z,12.10
2023-08-24T03:06:44.991Z,12.30
2023-08-24T03:07:44.939Z,12.60
2023-08-24T03:08:44.935Z,14.10
2023-08-24T03:09:44.932Z,10.70
2023-08-24T03:10:44.921Z,24.20
2023-08-24T03:11:44.941Z,13.40
2023-08-24T03:12:44.905Z,10.20
2023-08-24T03:13:44.902Z,11.30
2023-08-24T03:14:44.902Z,15.10
2023-08-24T03:15:44.956Z,11.40
2023-08-24T03:16:44.917Z,11.40
2023-08-24T03:17:44.906Z,10.90
2023-08-24T03:18:44.897Z,11.20
2023-08-24T03:19:44.845Z,10.10
2023-08-24T03:20:44.869Z,8.70
2023-08-24T03:21:44.832Z,9.40
2023-08-24T03:22:44.827Z,9.80
2023-08-24T03:23:44.827Z,9.20
2023-08-24T03:24:44.814Z,9.10
2023-08-24T03:25:44.841Z,9.50
2023-08-24T03:26:44.800Z,8.90
2023-08-24T03:27:44.797Z,8.90
2023-08-24T03:28:44.787Z,9.00
2023-08-24T03:29:44.780Z,9.10
2023-08-24T03:30:44.796Z,9.10
2023-08-24T03:31:44.804Z,8.90
2023-08-24T03:32:44.813Z,24.90
2023-08-24T03:33:44.753Z,36.70
2023-08-24T03:34:44.772Z,20.30
2023-08-24T03:35:44.771Z,9.70
2023-08-24T03:36:44.716Z,9.10
2023-08-24T03:37:44.729Z,11.90
2023-08-24T03:38:44.700Z,13.90
2023-08-24T03:39:44.721Z,11.70
2023-08-24T03:40:44.693Z,10.30
2023-08-24T03:41:44.678Z,10.60
2023-08-24T03:42:44.672Z,10.20
2023-08-24T03:43:44.663Z,9.90
2023-08-24T03:44:44.684Z,10.00
2023-08-24T03:45:44.765Z,9.60
2023-08-24T03:46:44.771Z,9.60
2023-08-24T03:47:44.647Z,10.00
2023-08-24T03:48:44.656Z,11.40
2023-08-24T03:49:44.644Z,16.40
2023-08-24T03:50:44.618Z,22.20
2023-08-24T03:51:44.645Z,24.40
2023-08-24T03:52:44.615Z,14.60
2023-08-24T03:53:44.627Z,14.00
2023-08-24T03:54:44.575Z,18.30
2023-08-24T03:55:44.581Z,17.10
2023-08-24T03:56:44.566Z,13.40
2023-08-24T03:57:44.668Z,13.70
2023-08-24T03:58:44.578Z,13.30
2023-08-24T03:59:44.541Z,13.40
2023-08-24T04:00:44.534Z,12.20
2023-08-24T04:01:44.524Z,12.30
2023-08-24T04:02:44.547Z,12.50
2023-08-24T04:03:45.567Z,11.30
2023-08-24T04:04:44.525Z,10.40
2023-08-24T04:05:44.503Z,9.60
2023-08-24T04:06:44.484Z,9.60
2023-08-24T04:07:44.505Z,9.20
2023-08-24T04:08:44.478Z,9.20
2023-08-24T04:09:44.462Z,10.30
2023-08-24T04:10:44.450Z,17.20
2023-08-24T04:11:44.444Z,12.10
2023-08-24T04:12:44.464Z,21.50
2023-08-24T04:13:44.423Z,58.80
2023-08-24T04:14:44.421Z,79.00
2023-08-24T04:15:44.448Z,69.20
2023-08-24T04:16:44.412Z,55.90
2023-08-24T04:17:44.854Z,24.30
2023-08-24T04:18:45.390Z,47.70
2023-08-24T04:19:44.387Z,53.20
2023-08-24T04:20:44.382Z,46.20
2023-08-24T04:21:44.377Z,31.70
2023-08-24T04:22:44.389Z,37.60
2023-08-24T04:23:44.383Z,39.30
2023-08-24T04:24:44.359Z,55.70
2023-08-24T04:25:44.338Z,32.60
2023-08-24T04:26:44.339Z,42.70
2023-08-24T04:27:44.353Z,30.00
2023-08-24T04:28:44.329Z,28.40
2023-08-24T04:29:44.296Z,37.40
2023-08-24T04:30:45.343Z,43.80
2023-08-24T04:31:44.327Z,40.00
2023-08-24T04:32:44.350Z,31.80
2023-08-24T04:33:44.276Z,24.90
2023-08-24T04:34:44.284Z,13.60
2023-08-24T04:35:44.266Z,12.80
2023-08-24T04:36:44.290Z,10.20
2023-08-24T04:37:44.257Z,10.50
2023-08-24T04:38:44.244Z,9.60
2023-08-24T04:39:44.241Z,9.60
2023-08-24T04:40:44.226Z,9.70
2023-08-24T04:41:44.241Z,9.50
2023-08-24T04:42:44.214Z,8.90
2023-08-24T04:43:44.198Z,10.00
2023-08-24T04:44:44.205Z,9.70
2023-08-24T04:45:44.185Z,9.70
2023-08-24T04:46:44.233Z,9.70
2023-08-24T04:47:44.203Z,10.40
2023-08-24T04:48:44.162Z,10.60
2023-08-24T04:49:44.159Z,10.40
2023-08-24T04:50:46.519Z,10.10
2023-08-24T04:51:44.169Z,10.10
2023-08-24T04:52:44.141Z,10.50
2023-08-24T04:53:44.126Z,10.10
2023-08-24T04:54:44.112Z,10.40
2023-08-24T04:55:44.130Z,10.80
2023-08-24T04:56:44.088Z,12.60
2023-08-24T04:57:44.581Z,12.50
2023-08-24T04:58:44.087Z,11.30
2023-08-24T04:59:44.071Z,11.00
2023-08-24T05:00:44.097Z,9.60
2023-08-24T05:01:44.060Z,9.50
2023-08-24T05:02:44.103Z,8.70
2023-08-24T05:03:44.038Z,8.60
2023-08-24T05:04:44.063Z,8.60
2023-08-24T05:05:44.050Z,8.30
2023-08-24T05:06:44.020Z,8.30
2023-08-24T05:07:44.013Z,7.80
2023-08-24T05:08:44.012Z,8.20
2023-08-24T05:09:44.022Z,7.70
2023-08-24T05:10:44.004Z,7.50
2023-08-24T05:11:44.011Z,7.60
2023-08-24T05:12:43.978Z,7.90
2023-08-24T05:13:43.956Z,7.60
2023-08-24T05:14:43.981Z,7.60
2023-08-24T05:15:43.944Z,7.60
2023-08-24T05:16:43.996Z,7.70
2023-08-24T05:17:43.989Z,8.10
2023-08-24T05:18:44.043Z,8.70
2023-08-24T05:19:44.001Z,10.60
2023-08-24T05:20:43.908Z,13.70
2023-08-24T05:21:43.905Z,13.90
2023-08-24T05:22:43.887Z,17.70
2023-08-24T05:23:43.909Z,13.10
2023-08-24T05:24:43.887Z,8.70
2023-08-24T05:25:45.911Z,8.30
2023-08-24T05:26:44.854Z,8.30
2023-08-24T05:27:43.865Z,8.20
2023-08-24T05:28:43.878Z,9.80
2023-08-24T05:29:43.845Z,14.60
2023-08-24T05:30:43.858Z,12.90
2023-08-24T05:31:43.813Z,9.90
2023-08-24T05:32:43.843Z,8.60
2023-08-24T05:33:43.814Z,8.80
2023-08-24T05:34:44.793Z,8.30
2023-08-24T05:35:43.791Z,8.30
2023-08-24T05:36:43.781Z,9.60
2023-08-24T05:37:43.845Z,10.00
2023-08-24T05:38:59.397Z,10.90
2023-08-24T05:39:45.780Z,10.80
2023-08-24T05:40:43.749Z,10.30
2023-08-24T05:41:43.740Z,9.90
2023-08-24T05:42:43.763Z,11.70
2023-08-24T05:43:43.726Z,14.70
2023-08-24T05:44:43.716Z,13.30
2023-08-24T05:45:43.711Z,13.60
2023-08-24T05:46:43.728Z,11.50
2023-08-24T05:47:43.855Z,9.00
2023-08-24T05:48:43.685Z,11.20
2023-08-24T05:49:43.675Z,10.00
2023-08-24T05:50:43.669Z,9.90
2023-08-24T05:51:43.681Z,11.00
2023-08-24T05:52:43.648Z,9.60
2023-08-24T05:53:43.641Z,12.30
2023-08-24T05:54:43.642Z,11.40
2023-08-24T05:55:43.635Z,11.90
2023-08-24T05:56:43.641Z,20.30
2023-08-24T05:57:43.617Z,9.30
2023-08-24T05:58:43.604Z,8.90
2023-08-24T05:59:43.607Z,10.70
2023-08-24T06:00:43.624Z,10.20
2023-08-24T06:01:43.692Z,9.50
2023-08-24T06:02:43.609Z,10.30
2023-08-24T06:03:43.623Z,15.70
2023-08-24T06:04:43.561Z,16.50
2023-08-24T06:05:43.578Z,13.70
2023-08-24T06:06:43.552Z,12.40
2023-08-24T06:07:43.527Z,12.90
2023-08-24T06:08:43.552Z,9.60
2023-08-24T06:09:43.517Z,11.50
2023-08-24T06:10:43.523Z,10.10
2023-08-24T06:11:43.507Z,8.40
2023-08-24T06:12:43.494Z,8.90
2023-08-24T06:13:43.498Z,9.40
2023-08-24T06:14:43.483Z,9.30
2023-08-24T06:15:43.504Z,9.60
2023-08-24T06:16:43.462Z,9.50
2023-08-24T06:17:43.480Z,10.80
2023-08-24T06:18:43.450Z,11.30
2023-08-24T06:19:43.467Z,10.20
2023-08-24T06:20:43.459Z,9.20
2023-08-24T06:21:43.444Z,9.30
2023-08-24T06:22:43.423Z,10.10
2023-08-24T06:23:43.405Z,9.40
2023-08-24T06:24:43.424Z,10.60
2023-08-24T06:25:43.419Z,10.00
2023-08-24T06:26:43.390Z,10.90
2023-08-24T06:27:43.380Z,9.10
2023-08-24T06:28:43.373Z,9.00
2023-08-24T06:29:43.393Z,11.10
2023-08-24T06:30:43.350Z,10.60
2023-08-24T06:31:43.392Z,9.40
2023-08-24T06:32:43.416Z,9.30
2023-08-24T06:33:43.336Z,9.10
2023-08-24T06:34:44.974Z,11.00
2023-08-24T06:35:43.326Z,11.80
2023-08-24T06:36:43.314Z,10.50
2023-08-24T06:37:43.299Z,10.00
2023-08-24T06:38:43.320Z,9.20
2023-08-24T06:39:43.315Z,8.70
2023-08-24T06:40:43.283Z,8.30
2023-08-24T06:41:43.282Z,8.20
2023-08-24T06:42:43.262Z,8.30
2023-08-24T06:43:43.282Z,8.50
2023-08-24T06:44:43.244Z,8.60
2023-08-24T06:45:43.242Z,8.60
2023-08-24T06:46:43.228Z,9.60
2023-08-24T06:47:43.250Z,9.70
2023-08-24T06:48:43.250Z,9.30
2023-08-24T06:49:43.235Z,8.50
2023-08-24T06:50:43.200Z,9.10
2023-08-24T06:51:43.182Z,8.90
2023-08-24T06:52:43.185Z,8.60
2023-08-24T06:53:43.201Z,8.80
2023-08-24T06:54:43.177Z,8.70
2023-08-24T06:55:43.158Z,8.70
2023-08-24T06:56:43.148Z,11.20
2023-08-24T06:57:43.141Z,10.90
2023-08-24T06:58:43.164Z,10.00
2023-08-24T06:59:43.127Z,8.60
2023-08-24T07:00:43.118Z,8.20
2023-08-24T07:01:43.130Z,7.90
2023-08-24T07:02:43.159Z,8.10
2023-08-24T07:03:43.173Z,7.80
2023-08-24T07:04:43.103Z,8.20
2023-08-24T07:05:43.084Z,8.30
2023-08-24T07:06:43.077Z,8.40
2023-08-24T07:07:43.100Z,9.00
2023-08-24T07:08:43.078Z,9.20
2023-08-24T07:09:43.057Z,9.70
2023-08-24T07:10:43.042Z,9.70
2023-08-24T07:11:43.041Z,9.40
2023-08-24T07:12:43.084Z,9.00
2023-08-24T07:13:43.026Z,9.50
2023-08-24T07:14:43.030Z,10.00
2023-08-24T07:15:43.036Z,9.30
2023-08-24T07:16:43.041Z,9.80
2023-08-24T07:17:43.034Z,9.50
2023-08-24T07:18:42.989Z,9.10
2023-08-24T07:19:42.989Z,12.50
2023-08-24T07:20:42.969Z,9.50
2023-08-24T07:21:42.998Z,8.90
2023-08-24T07:22:42.958Z,9.80
2023-08-24T07:23:43.944Z,8.90
2023-08-24T07:24:46.020Z,9.60
2023-08-24T07:25:43.930Z,8.60
2023-08-24T07:26:42.962Z,8.20
2023-08-24T07:27:42.919Z,8.40
2023-08-24T07:28:42.906Z,8.50
2023-08-24T07:29:42.891Z,9.00
2023-08-24T07:30:43.928Z,9.90
2023-08-24T07:31:43.003Z,12.20
2023-08-24T07:32:42.927Z,9.10
2023-08-24T07:33:42.880Z,10.20
2023-08-24T07:34:42.878Z,9.20
2023-08-24T07:35:42.881Z,9.30
2023-08-24T07:36:42.880Z,11.10
2023-08-24T07:37:42.844Z,9.70
2023-08-24T07:38:42.842Z,10.00
2023-08-24T07:39:42.833Z,9.80
2023-08-24T07:40:42.847Z,9.80
2023-08-24T07:41:42.818Z,9.30
2023-08-24T07:42:42.806Z,9.30
2023-08-24T07:43:42.864Z,9.10
2023-08-24T07:44:42.783Z,8.80
2023-08-24T07:45:42.849Z,9.50
2023-08-24T07:46:42.782Z,9.40
2023-08-24T07:47:42.880Z,11.00
2023-08-24T07:48:42.759Z,9.60
2023-08-24T07:49:42.750Z,10.90
2023-08-24T07:50:42.789Z,13.60
2023-08-24T07:51:42.779Z,13.00
2023-08-24T07:52:42.725Z,10.70
2023-08-24T07:53:42.719Z,12.30
2023-08-24T07:54:42.739Z,12.70
2023-08-24T07:55:42.739Z,14.30
2023-08-24T07:56:42.697Z,30.30
2023-08-24T07:57:42.690Z,27.50
2023-08-24T07:58:42.676Z,36.30
2023-08-24T07:59:43.701Z,16.00
2023-08-24T08:00:42.669Z,35.70
2023-08-24T08:01:42.697Z,29.30
2023-08-24T08:02:42.726Z,33.40
2023-08-24T08:03:42.688Z,34.60
2023-08-24T08:04:42.685Z,27.90
2023-08-24T08:05:42.635Z,18.80
2023-08-24T08:06:42.621Z,16.50
2023-08-24T08:07:42.615Z,20.00
2023-08-24T08:08:42.633Z,13.30
2023-08-24T08:09:42.620Z,23.50
2023-08-24T08:10:42.584Z,14.10
2023-08-24T08:11:42.592Z,12.40
2023-08-24T08:12:42.580Z,14.80
2023-08-24T08:13:42.594Z,11.90
2023-08-24T08:14:42.557Z,11.20
2023-08-24T08:15:42.581Z,18.60
2023-08-24T08:16:42.550Z,16.20
2023-08-24T08:17:42.570Z,14.00
2023-08-24T08:18:42.557Z,10.80
2023-08-24T08:19:42.550Z,10.90
2023-08-24T08:20:42.552Z,11.30
2023-08-24T08:21:42.506Z,10.10
2023-08-24T08:22:42.674Z,9.60
2023-08-24T08:23:42.545Z,11.20
2023-08-24T08:24:42.564Z,11.10
2023-08-24T08:25:42.495Z,11.90
2023-08-24T08:26:42.513Z,9.80
2023-08-24T08:27:42.553Z,8.90
2023-08-24T08:28:42.545Z,10.20
2023-08-24T08:29:42.444Z,10.70
2023-08-24T08:30:42.582Z,8.70
2023-08-24T08:31:42.578Z,20.80
2023-08-24T08:32:42.564Z,15.00
2023-08-24T08:33:42.427Z,9.90
2023-08-24T08:34:42.413Z,9.80
2023-08-24T08:35:42.423Z,10.90
2023-08-24T08:36:42.415Z,10.40
2023-08-24T08:37:42.409Z,10.10
2023-08-24T08:38:42.372Z,9.70
2023-08-24T08:39:42.386Z,10.10
2023-08-24T08:40:42.370Z,9.90
2023-08-24T08:41:42.386Z,9.60
2023-08-24T08:42:42.374Z,9.50
2023-08-24T08:43:42.344Z,9.60
2023-08-24T08:44:42.381Z,9.50
2023-08-24T08:45:42.321Z,9.60
2023-08-24T08:46:42.412Z,9.40
2023-08-24T08:47:42.566Z,8.70
2023-08-24T08:48:42.327Z,9.40
2023-08-24T08:49:42.289Z,9.10
2023-08-24T08:50:42.293Z,8.60
2023-08-24T08:51:42.308Z,8.20
2023-08-24T08:52:42.289Z,8.00
2023-08-24T08:53:42.275Z,8.10
2023-08-24T08:54:42.260Z,8.40
2023-08-24T08:55:42.292Z,8.50
2023-08-24T08:56:42.262Z,15.20
2023-08-24T08:57:42.236Z,10.60
2023-08-24T08:58:42.223Z,8.20
2023-08-24T08:59:43.217Z,6.80
2023-08-24T09:00:42.271Z,6.90
2023-08-24T09:01:42.227Z,7.10
2023-08-24T09:02:42.244Z,7.70
2023-08-24T09:03:42.216Z,8.00
2023-08-24T09:04:42.208Z,8.10
2023-08-24T09:05:43.206Z,8.20
2023-08-24T09:06:42.163Z,8.40
2023-08-24T09:07:42.161Z,8.00
2023-08-24T09:08:42.146Z,7.80
2023-08-24T09:09:42.156Z,8.50
2023-08-24T09:10:42.163Z,8.30
2023-08-24T09:11:42.148Z,7.80
2023-08-24T09:12:42.121Z,8.60
2023-08-24T09:13:42.113Z,8.60
2023-08-24T09:14:42.107Z,8.00
2023-08-24T09:15:42.141Z,27.20
2023-08-24T09:16:42.132Z,21.10
2023-08-24T09:17:42.108Z,7.80
2023-08-24T09:18:42.077Z,7.50
2023-08-24T09:19:42.096Z,9.80
2023-08-24T09:20:42.088Z,7.70
2023-08-24T09:21:42.058Z,8.60
2023-08-24T09:22:42.043Z,19.50
2023-08-24T09:23:42.049Z,10.50
2023-08-24T09:24:42.054Z,6.70
2023-08-24T09:25:42.030Z,5.90
2023-08-24T09:26:42.018Z,5.80
2023-08-24T09:27:42.010Z,5.60
2023-08-24T09:28:42.001Z,6.50
2023-08-24T09:29:42.012Z,8.00
2023-08-24T09:30:42.016Z,5.60
2023-08-24T09:31:41.963Z,5.50
2023-08-24T09:32:42.008Z,6.20
2023-08-24T09:33:41.994Z,22.20
2023-08-24T09:34:41.979Z,30.10
2023-08-24T09:35:41.939Z,20.60
2023-08-24T09:36:41.942Z,9.30
2023-08-24T09:37:41.918Z,5.30
2023-08-24T09:38:41.939Z,8.50
2023-08-24T09:39:41.934Z,8.70
2023-08-24T09:40:41.903Z,9.00
2023-08-24T09:41:41.911Z,6.60
2023-08-24T09:42:41.886Z,6.70
2023-08-24T09:43:41.914Z,11.70
2023-08-24T09:44:41.868Z,5.60
2023-08-24T09:45:41.871Z,38.50
2023-08-24T09:46:41.876Z,10.20
2023-08-24T09:47:41.862Z,12.10
2023-08-24T09:48:41.873Z,12.20
2023-08-24T09:49:41.835Z,6.20
2023-08-24T09:50:41.830Z,16.30
2023-08-24T09:51:41.845Z,9.00
2023-08-24T09:52:41.820Z,7.00
2023-08-24T09:53:41.849Z,4.80
2023-08-24T09:54:41.800Z,7.30
2023-08-24T09:55:41.793Z,4.90
2023-08-24T09:56:41.809Z,5.60
2023-08-24T09:57:41.818Z,5.00
2023-08-24T09:58:42.791Z,4.80
2023-08-24T09:59:41.758Z,13.10
2023-08-24T10:00:41.750Z,7.80
2023-08-24T10:01:42.681Z,8.90
2023-08-24T10:02:41.836Z,16.20
2023-08-24T10:03:41.828Z,11.80
2023-08-24T10:04:41.729Z,8.40
2023-08-24T10:06:42.726Z,7.60
2023-08-24T10:07:41.717Z,8.70
2023-08-24T10:08:41.686Z,10.80
2023-08-24T10:09:41.679Z,7.70
2023-08-24T10:10:41.672Z,7.00
2023-08-24T10:11:41.692Z,6.50
2023-08-24T10:12:41.680Z,6.60
2023-08-24T10:13:41.655Z,6.40
2023-08-24T10:14:41.648Z,6.40
2023-08-24T10:15:41.681Z,6.60
2023-08-24T10:16:41.696Z,6.60
2023-08-24T10:17:41.647Z,6.80
2023-08-24T10:18:41.618Z,7.00
2023-08-24T10:19:41.609Z,6.50
2023-08-24T10:20:41.599Z,62.40
2023-08-24T10:21:41.631Z,42.30
2023-08-24T10:22:41.613Z,13.40
2023-08-24T10:23:41.578Z,12.30
2023-08-24T10:24:41.600Z,13.40
2023-08-24T10:25:41.586Z,19.40
2023-08-24T10:26:41.586Z,11.00
2023-08-24T10:27:41.553Z,11.10
2023-08-24T10:28:41.538Z,18.80
2023-08-24T10:29:41.544Z,12.00
2023-08-24T10:30:41.591Z,27.90
2023-08-24T10:31:41.581Z,7.70
2023-08-24T10:32:41.642Z,19.10
2023-08-24T10:33:41.529Z,19.10
2023-08-24T10:34:41.492Z,6.20
2023-08-24T10:35:41.517Z,5.80
2023-08-24T10:36:41.575Z,6.20
2023-08-24T10:37:41.569Z,4.80
2023-08-24T10:38:41.463Z,7.70
2023-08-24T10:39:41.532Z,5.20
2023-08-24T10:40:41.478Z,5.30
2023-08-24T10:41:41.441Z,6.40
2023-08-24T10:42:41.441Z,6.00
2023-08-24T10:43:41.426Z,13.10
2023-08-24T10:44:41.450Z,5.80
2023-08-24T10:45:41.502Z,4.30
2023-08-24T10:46:41.415Z,4.40
2023-08-24T10:47:41.444Z,4.30
2023-08-24T10:48:41.386Z,5.10
2023-08-24T10:49:41.410Z,9.80
2023-08-24T10:50:41.393Z,11.60
2023-08-24T10:51:41.369Z,14.40
2023-08-24T10:52:41.374Z,6.80
2023-08-24T10:53:41.375Z,4.80
2023-08-24T10:54:41.372Z,4.40
2023-08-24T10:55:41.348Z,4.40
2023-08-24T10:56:41.441Z,4.10
2023-08-24T10:57:42.198Z,3.80
2023-08-24T10:58:41.350Z,3.80
2023-08-24T10:59:51.005Z,3.60
2023-08-24T11:00:43.301Z,4.10
2023-08-24T11:01:41.354Z,4.00
2023-08-24T11:02:41.362Z,4.10
2023-08-24T11:03:41.366Z,4.10
2023-08-24T11:04:41.277Z,4.00
2023-08-24T11:05:41.263Z,4.20
2023-08-24T11:06:41.266Z,3.50
2023-08-24T11:07:41.262Z,3.30
2023-08-24T11:08:41.270Z,3.40
2023-08-24T11:09:41.234Z,3.20
2023-08-24T11:10:41.275Z,3.40
2023-08-24T11:11:41.222Z,3.40
2023-08-24T11:12:41.217Z,3.50
2023-08-24T11:14:14.783Z,4.00
2023-08-24T11:14:41.188Z,3.40
2023-08-24T11:15:41.208Z,4.10
2023-08-24T11:16:41.193Z,4.50
2023-08-24T11:17:41.200Z,3.90
2023-08-24T11:18:41.195Z,3.30
2023-08-24T11:19:41.172Z,3.40
2023-08-24T11:20:41.249Z,3.30
2023-08-24T11:21:41.154Z,3.50
2023-08-24T11:22:41.168Z,3.20
2023-08-24T11:23:41.132Z,3.30
2023-08-24T11:24:41.157Z,3.50
2023-08-24T11:25:41.120Z,3.60
2023-08-24T11:26:41.120Z,3.50
2023-08-24T11:27:41.126Z,3.40
2023-08-24T11:28:41.092Z,4.10
2023-08-24T11:29:41.094Z,5.50
2023-08-24T11:30:41.090Z,4.70
2023-08-24T11:31:43.005Z,3.50
2023-08-24T11:32:42.115Z,3.30
2023-08-24T11:33:41.057Z,3.30
2023-08-24T11:34:41.052Z,3.20
2023-08-24T11:35:41.080Z,3.40
2023-08-24T11:36:41.054Z,3.50
2023-08-24T11:37:41.049Z,3.40
2023-08-24T11:38:41.039Z,3.50
2023-08-24T11:39:41.015Z,3.40
2023-08-24T11:40:41.006Z,3.40
2023-08-24T11:41:41.030Z,3.70
2023-08-24T11:42:40.993Z,3.50
2023-08-24T11:43:40.987Z,3.40
2023-08-24T11:44:40.971Z,3.50
2023-08-24T11:45:40.961Z,3.50
2023-08-24T11:46:41.016Z,3.40
2023-08-24T11:47:40.990Z,3.50
2023-08-24T11:48:40.940Z,3.50
2023-08-24T11:49:40.928Z,3.40
2023-08-24T11:50:40.946Z,3.80
2023-08-24T11:51:43.643Z,4.10
2023-08-24T11:52:41.920Z,5.70
2023-08-24T11:53:40.908Z,19.60
2023-08-24T11:54:40.914Z,6.90
2023-08-24T11:55:45.814Z,3.40
2023-08-24T11:56:42.873Z,3.30
2023-08-24T11:57:41.881Z,3.40
2023-08-24T11:58:40.867Z,3.00
2023-08-24T11:59:40.872Z,3.20
2023-08-24T12:00:40.946Z,3.20
2023-08-24T12:01:40.862Z,3.40
2023-08-24T12:02:40.859Z,3.50
2023-08-24T12:03:40.964Z,3.30
2023-08-24T12:04:40.825Z,3.50
2023-08-24T12:05:40.834Z,3.10
2023-08-24T12:06:40.800Z,3.50
2023-08-24T12:07:40.798Z,3.40
2023-08-24T12:08:40.798Z,3.10
2023-08-24T12:09:40.801Z,3.70
2023-08-24T12:10:40.805Z,6.30
2023-08-24T12:11:40.773Z,6.30
2023-08-24T12:12:40.849Z,6.00
2023-08-24T12:13:40.763Z,4.50
2023-08-24T12:14:41.803Z,6.80
2023-08-24T12:15:41.771Z,4.20
2023-08-24T12:16:40.745Z,5.50
2023-08-24T12:17:40.753Z,4.70
2023-08-24T12:18:40.720Z,3.30
2023-08-24T12:19:40.712Z,4.50
2023-08-24T12:20:40.728Z,4.50
2023-08-24T12:21:40.697Z,4.20
2023-08-24T12:22:40.694Z,3.70
2023-08-24T12:23:40.690Z,3.80
2023-08-24T12:24:40.706Z,3.30
2023-08-24T12:25:40.697Z,3.30
2023-08-24T12:26:40.663Z,3.00
2023-08-24T12:27:40.694Z,3.20
2023-08-24T12:28:40.654Z,3.10
2023-08-24T12:29:40.666Z,3.10
2023-08-24T12:30:40.662Z,3.40
2023-08-24T12:31:40.618Z,3.30
2023-08-24T12:32:40.639Z,3.20
2023-08-24T12:33:40.604Z,3.20
2023-08-24T12:34:40.621Z,3.10
2023-08-24T12:35:40.591Z,3.10
2023-08-24T12:36:40.710Z,3.20
2023-08-24T12:37:40.579Z,3.00
2023-08-24T12:38:40.602Z,2.90
2023-08-24T12:39:40.578Z,3.50
2023-08-24T12:40:40.542Z,3.40
2023-08-24T12:41:40.541Z,3.50
2023-08-24T12:42:40.540Z,3.10
2023-08-24T12:43:41.573Z,3.20
2023-08-24T12:44:41.545Z,3.20
2023-08-24T12:45:40.526Z,2.90
2023-08-24T12:46:40.626Z,3.10
2023-08-24T12:47:40.570Z,3.20
2023-08-24T12:48:40.516Z,3.40
2023-08-24T12:49:40.523Z,3.00
2023-08-24T12:50:40.484Z,3.30
2023-08-24T12:51:40.502Z,3.10
2023-08-24T12:52:40.457Z,3.20
2023-08-24T12:53:40.485Z,3.20
2023-08-24T12:54:40.438Z,2.90
2023-08-24T12:55:40.454Z,3.10
2023-08-24T12:56:40.438Z,3.10
2023-08-24T12:57:40.420Z,3.40
2023-08-24T12:58:40.446Z,3.20
2023-08-24T12:59:40.402Z,3.40
2023-08-24T13:00:40.436Z,3.20
2023-08-24T13:01:40.401Z,3.30
2023-08-24T13:02:40.447Z,3.00
2023-08-24T13:03:40.413Z,2.90
2023-08-24T13:04:40.397Z,3.20
2023-08-24T13:05:40.384Z,2.90
2023-08-24T13:06:40.349Z,2.80
2023-08-24T13:07:40.370Z,2.80
2023-08-24T13:08:40.352Z,2.80
2023-08-24T13:09:40.328Z,2.90